Time;durP1;ratioP1;P1;durP2;ratioP2;P2;SDS_P1;SDS_P2;PMS_P1;PMS_P2;Temp;Humidity;BMP_temperature;BMP_pressure;BME280_temperature;BME280_humidity;BME280_pressure;Samples;Min_cycle;Max_cycle;Signal;HPM_P1;HPM_P2
2021/05/19 00:02:07;;;;;;;13.98;10.85;;;;;;;;;;5012577;28;20056;-62
2021/05/19 00:04:53;;;;;;;106.03;18.60;;;;;;;;;;5011742;28;20058;-63
2021/05/19 00:07:38;;;;;;;70.22;22.77;;;;;;;;;;5012247;28;20575;-63
2021/05/19 00:10:23;;;;;;;29.90;18.58;;;;;;;;;;5011942;28;20049;-63
2021/05/19 00:13:09;;;;;;;38.40;19.45;;;;;;;;;;5012249;28;20077;-62
2021/05/19 00:15:54;;;;;;;35.25;19.98;;;;;;;;;;5011288;28;20089;-63
2021/05/19 00:18:39;;;;;;;30.23;18.70;;;;;;;;;;5012230;28;20140;-63
2021/05/19 00:21:25;;;;;;;26.88;17.10;;;;;;;;;;5014527;28;20053;-63
2021/05/19 00:24:10;;;;;;;26.00;16.30;;;;;;;;;;5015641;28;20121;-62
2021/05/19 00:26:56;;;;;;;29.10;18.23;;;;;;;;;;5002876;28;20061;-62
2021/05/19 00:29:41;;;;;;;30.67;20.27;;;;;;;;;;4996153;28;20070;-63
2021/05/19 00:32:27;;;;;;;27.95;17.33;;;;;;;;;;5009528;28;20049;-63
2021/05/19 00:35:12;;;;;;;28.35;17.88;;;;;;;;;;5016104;28;20057;-63
2021/05/19 00:37:57;;;;;;;28.02;17.42;;;;;;;;;;4996913;28;20049;-63
2021/05/19 00:40:42;;;;;;;27.13;18.15;;;;;;;;;;4995923;28;20042;-63
2021/05/19 00:43:28;;;;;;;28.33;17.60;;;;;;;;;;4996343;28;20046;-63
2021/05/19 00:46:13;;;;;;;20.58;14.40;;;;;;;;;;4997967;28;20193;-63
2021/05/19 00:48:59;;;;;;;26.27;17.63;;;;;;;;;;5015622;28;20917;-63
2021/05/19 00:51:44;;;;;;;26.25;18.70;;;;;;;;;;5015600;28;20132;-63
2021/05/19 00:54:29;;;;;;;18.73;14.57;;;;;;;;;;5015582;28;20042;-63
2021/05/19 00:57:15;;;;;;;30.40;21.10;;;;;;;;;;5007799;28;20057;-63
2021/05/19 01:00:00;;;;;;;32.67;21.02;;;;;;;;;;4980953;28;20069;-63
2021/05/19 01:02:58;;;;;;;31.05;22.27;;;;;;;;;;5011840;28;20034;-63
2021/05/19 01:05:49;;;;;;;29.23;19.75;;;;;;;;;;5014405;28;21205;-63
2021/05/19 01:11:41;;;;;;;27.05;19.10;;;;;;;;;;5014991;28;20053;-63
2021/05/19 01:14:27;;;;;;;26.23;19.80;;;;;;;;;;5015363;28;20061;-63
2021/05/19 01:17:12;;;;;;;26.25;19.20;;;;;;;;;;5016468;28;20046;-63
2021/05/19 01:19:58;;;;;;;25.88;18.75;;;;;;;;;;5034373;28;20092;-63
2021/05/19 01:22:43;;;;;;;31.83;19.00;;;;;;;;;;5034753;28;20492;-63
2021/05/19 01:25:29;;;;;;;26.30;16.75;;;;;;;;;;5019824;28;20160;-63
2021/05/19 01:28:14;;;;;;;24.77;16.00;;;;;;;;;;5027560;28;20488;-63
2021/05/19 01:31:02;;;;;;;22.00;15.80;;;;;;;;;;5000340;28;20054;-63
2021/05/19 01:33:49;;;;;;;24.05;17.10;;;;;;;;;;4999578;28;20050;-63
2021/05/19 01:36:34;;;;;;;26.33;19.85;;;;;;;;;;5014846;28;20054;-63
2021/05/19 01:39:21;;;;;;;29.60;21.33;;;;;;;;;;5012929;28;20099;-63
2021/05/19 01:42:07;;;;;;;31.17;19.35;;;;;;;;;;5019796;28;20125;-63
2021/05/19 01:44:54;;;;;;;28.40;19.23;;;;;;;;;;5019745;28;20045;-63
2021/05/19 01:48:00;;;;;;;23.50;17.10;;;;;;;;;;5019465;28;20054;-63
2021/05/19 01:50:46;;;;;;;32.45;20.02;;;;;;;;;;4994683;28;20042;-63
2021/05/19 01:53:32;;;;;;;38.00;23.35;;;;;;;;;;5007600;28;20046;-63
2021/05/19 01:56:17;;;;;;;36.38;24.80;;;;;;;;;;4980300;28;20050;-63
2021/05/19 01:59:04;;;;;;;34.60;23.48;;;;;;;;;;5004500;28;20120;-63
2021/05/19 02:01:50;;;;;;;36.13;23.88;;;;;;;;;;5019039;28;20077;-63
2021/05/19 02:04:37;;;;;;;39.30;24.45;;;;;;;;;;5034294;28;20045;-63
2021/05/19 02:07:23;;;;;;;36.00;23.73;;;;;;;;;;5005428;28;20041;-63
2021/05/19 02:10:11;;;;;;;42.58;26.50;;;;;;;;;;5021784;28;20050;-63
2021/05/19 02:12:59;;;;;;;37.25;25.10;;;;;;;;;;5014242;28;20053;-63
2021/05/19 02:15:45;;;;;;;34.40;24.73;;;;;;;;;;5014139;28;20187;-63
2021/05/19 02:18:33;;;;;;;39.72;24.90;;;;;;;;;;4999485;28;20069;-63
2021/05/19 02:21:19;;;;;;;38.58;25.90;;;;;;;;;;5016460;28;20041;-63
2021/05/19 02:24:13;;;;;;;38.53;25.15;;;;;;;;;;5018758;28;20045;-63
2021/05/19 02:26:58;;;;;;;28.75;22.15;;;;;;;;;;5056192;23;20048;-61
2021/05/19 02:29:53;;;;;;;36.05;24.33;;;;;;;;;;4975000;28;20125;-60
2021/05/19 02:32:38;;;;;;;38.58;25.95;;;;;;;;;;4988302;28;20042;-61
2021/05/19 02:35:23;;;;;;;36.75;24.30;;;;;;;;;;4971909;28;20050;-61
2021/05/19 02:38:19;;;;;;;35.72;25.38;;;;;;;;;;5010715;28;20115;-59
2021/05/19 02:41:04;;;;;;;44.05;26.35;;;;;;;;;;5023384;28;20050;-61
2021/05/19 02:43:49;;;;;;;34.00;23.48;;;;;;;;;;5013619;28;20073;-60
2021/05/19 02:46:35;;;;;;;35.53;23.52;;;;;;;;;;4998723;28;20500;-61
2021/05/19 02:49:20;;;;;;;35.30;23.55;;;;;;;;;;5013336;28;20046;-58
2021/05/19 02:52:05;;;;;;;35.35;24.23;;;;;;;;;;5028028;28;20045;-60
2021/05/19 02:54:51;;;;;;;31.63;21.73;;;;;;;;;;5032084;28;20128;-61
2021/05/19 02:57:37;;;;;;;30.67;21.48;;;;;;;;;;5033076;28;20480;-61
2021/05/19 03:00:22;;;;;;;25.23;19.40;;;;;;;;;;5032985;28;20045;-60
2021/05/19 03:03:07;;;;;;;23.33;17.30;;;;;;;;;;4993724;28;20089;-59
2021/05/19 03:05:53;;;;;;;26.35;18.67;;;;;;;;;;4993623;28;20057;-61
2021/05/19 03:08:39;;;;;;;26.90;20.52;;;;;;;;;;4993501;28;20046;-61
2021/05/19 03:11:24;;;;;;;34.20;24.45;;;;;;;;;;5001074;28;20069;-60
2021/05/19 03:14:09;;;;;;;37.30;24.52;;;;;;;;;;5032779;28;20053;-61
2021/05/19 03:16:55;;;;;;;48.70;29.95;;;;;;;;;;5032544;28;20049;-61
2021/05/19 03:19:40;;;;;;;47.20;29.77;;;;;;;;;;5032557;28;20068;-60
2021/05/19 03:22:26;;;;;;;34.75;24.80;;;;;;;;;;5023304;28;20124;-60
2021/05/19 03:25:13;;;;;;;37.00;24.85;;;;;;;;;;5012886;28;20050;-60
2021/05/19 03:27:58;;;;;;;36.83;25.30;;;;;;;;;;5012718;28;20046;-61
2021/05/19 03:30:44;;;;;;;39.08;25.60;;;;;;;;;;5012565;28;20050;-60
2021/05/19 03:33:30;;;;;;;37.30;26.05;;;;;;;;;;4986504;28;20054;-63
2021/05/19 03:36:15;;;;;;;33.40;24.17;;;;;;;;;;5012816;28;20064;-62
2021/05/19 03:39:00;;;;;;;36.83;24.58;;;;;;;;;;5012642;28;20049;-63
2021/05/19 03:41:46;;;;;;;37.08;25.27;;;;;;;;;;5012383;28;20049;-62
2021/05/19 03:44:31;;;;;;;37.40;25.10;;;;;;;;;;4992935;28;20507;-63
2021/05/19 03:47:16;;;;;;;29.50;23.38;;;;;;;;;;4992948;28;20070;-63
2021/05/19 03:50:02;;;;;;;37.00;23.23;;;;;;;;;;4992544;28;20124;-62
2021/05/19 03:52:47;;;;;;;32.58;22.67;;;;;;;;;;5000268;28;20528;-63
2021/05/19 03:55:33;;;;;;;26.92;21.63;;;;;;;;;;5031636;28;20120;-62
2021/05/19 03:58:18;;;;;;;28.20;20.60;;;;;;;;;;5017018;28;20046;-63
2021/05/19 04:01:03;;;;;;;28.13;19.83;;;;;;;;;;5031984;28;20053;-63
2021/05/19 04:03:50;;;;;;;27.52;20.83;;;;;;;;;;5022896;28;20105;-64
2021/05/19 04:06:36;;;;;;;25.88;20.75;;;;;;;;;;5012273;28;20136;-63
2021/05/19 04:09:21;;;;;;;28.95;21.92;;;;;;;;;;5012075;28;20038;-63
2021/05/19 04:12:07;;;;;;;28.05;20.55;;;;;;;;;;4997556;28;20049;-64
2021/05/19 04:14:52;;;;;;;27.08;19.65;;;;;;;;;;5026966;28;20081;-64
2021/05/19 04:17:37;;;;;;;26.50;19.38;;;;;;;;;;5031829;28;20053;-63
2021/05/19 04:20:23;;;;;;;22.20;18.42;;;;;;;;;;5031798;28;20664;-63
2021/05/19 04:23:08;;;;;;;26.08;18.35;;;;;;;;;;5031891;28;20120;-63
2021/05/19 04:25:54;;;;;;;22.17;17.77;;;;;;;;;;4992673;28;20050;-63
2021/05/19 04:28:39;;;;;;;23.30;17.63;;;;;;;;;;4992399;28;20046;-62
2021/05/19 04:31:25;;;;;;;19.05;16.65;;;;;;;;;;4992328;28;20106;-63
2021/05/19 04:34:10;;;;;;;26.20;19.33;;;;;;;;;;4999707;28;20045;-63
2021/05/19 04:36:56;;;;;;;27.20;21.50;;;;;;;;;;5031747;28;20089;-63
2021/05/19 04:39:41;;;;;;;26.23;20.95;;;;;;;;;;5031425;28;20495;-63
2021/05/19 04:42:27;;;;;;;27.50;19.25;;;;;;;;;;5031647;28;20120;-63
2021/05/19 04:45:12;;;;;;;22.77;18.83;;;;;;;;;;5007496;28;20502;-63
2021/05/19 04:47:57;;;;;;;22.67;19.10;;;;;;;;;;5011907;28;20049;-63
2021/05/19 04:50:43;;;;;;;22.95;18.95;;;;;;;;;;5011786;28;20046;-62
2021/05/19 04:53:28;;;;;;;26.40;19.73;;;;;;;;;;5011823;28;20496;-62
2021/05/19 04:56:13;;;;;;;27.60;19.48;;;;;;;;;;5026134;28;20136;-63
2021/05/19 04:58:59;;;;;;;24.55;18.95;;;;;;;;;;5031421;28;20100;-62
2021/05/19 05:01:44;;;;;;;22.92;17.13;;;;;;;;;;5031502;28;20061;-63
2021/05/19 05:04:30;;;;;;;24.77;16.20;;;;;;;;;;5028349;28;20732;-62
2021/05/19 05:07:15;;;;;;;17.85;14.93;;;;;;;;;;5018202;28;20109;-63
2021/05/19 05:10:02;;;;;;;18.13;15.48;;;;;;;;;;4995484;28;20046;-62
2021/05/19 05:12:49;;;;;;;20.98;16.30;;;;;;;;;;4994833;28;20104;-63
2021/05/19 05:15:34;;;;;;;16.05;13.20;;;;;;;;;;5002649;28;20037;-63
2021/05/19 05:18:20;;;;;;;17.40;14.13;;;;;;;;;;5035267;28;20041;-63
2021/05/19 05:21:05;;;;;;;19.42;15.10;;;;;;;;;;5034808;28;20423;-63
2021/05/19 05:23:50;;;;;;;19.70;15.63;;;;;;;;;;5034757;28;20042;-63
2021/05/19 05:26:36;;;;;;;18.25;14.65;;;;;;;;;;5034584;28;20046;-63
2021/05/19 05:29:21;;;;;;;17.75;13.65;;;;;;;;;;5034444;28;20404;-62
2021/05/19 05:32:07;;;;;;;18.17;15.18;;;;;;;;;;5034583;28;20077;-63
2021/05/19 05:34:52;;;;;;;20.60;15.60;;;;;;;;;;5034912;28;20042;-62
2021/05/19 05:37:38;;;;;;;21.33;15.30;;;;;;;;;;5033966;28;20523;-63
2021/05/19 05:40:23;;;;;;;23.65;16.60;;;;;;;;;;5034245;28;20496;-62
2021/05/19 05:43:08;;;;;;;20.52;16.08;;;;;;;;;;5034494;28;20046;-63
2021/05/19 05:45:54;;;;;;;19.30;15.38;;;;;;;;;;5034567;28;20120;-63
2021/05/19 05:48:40;;;;;;;20.90;16.48;;;;;;;;;;4994875;28;20050;-63
2021/05/19 05:51:25;;;;;;;22.15;16.40;;;;;;;;;;4980225;28;20050;-62
2021/05/19 05:54:12;;;;;;;19.75;17.02;;;;;;;;;;4995991;28;20683;-64
2021/05/19 05:56:57;;;;;;;21.52;16.27;;;;;;;;;;5003331;28;20048;-62
2021/05/19 05:59:43;;;;;;;24.48;17.63;;;;;;;;;;5034040;28;20439;-62
2021/05/19 06:02:28;;;;;;;24.02;17.85;;;;;;;;;;5034144;28;20046;-63
2021/05/19 06:05:14;;;;;;;24.58;18.73;;;;;;;;;;5034378;28;20050;-63
2021/05/19 06:08:01;;;;;;;25.08;18.90;;;;;;;;;;5024895;28;20046;-64
2021/05/19 06:10:47;;;;;;;25.08;18.00;;;;;;;;;;5014002;28;20049;-63
2021/05/19 06:13:33;;;;;;;23.75;18.38;;;;;;;;;;5014659;28;20042;-64
2021/05/19 06:16:18;;;;;;;25.58;19.55;;;;;;;;;;5014745;28;20049;-63
2021/05/19 06:19:04;;;;;;;24.17;17.92;;;;;;;;;;5029200;28;20045;-63
2021/05/19 06:21:49;;;;;;;29.08;20.63;;;;;;;;;;5019100;28;20049;-63
2021/05/19 06:24:34;;;;;;;26.98;19.63;;;;;;;;;;5034205;28;20492;-63
2021/05/19 06:27:19;;;;;;;28.55;20.15;;;;;;;;;;5033589;28;20053;-64
2021/05/19 06:30:05;;;;;;;23.35;19.92;;;;;;;;;;4994046;28;20500;-64
2021/05/19 06:32:50;;;;;;;28.60;20.70;;;;;;;;;;4994354;28;20046;-64
2021/05/19 06:35:36;;;;;;;25.88;20.08;;;;;;;;;;4993989;28;20043;-63
2021/05/19 06:38:21;;;;;;;29.75;21.02;;;;;;;;;;4986041;28;20128;-63
2021/05/19 06:41:06;;;;;;;33.15;22.05;;;;;;;;;;5033174;28;20053;-63
2021/05/19 06:43:53;;;;;;;30.83;20.80;;;;;;;;;;5009253;28;20045;-63
2021/05/19 06:46:39;;;;;;;26.33;21.27;;;;;;;;;;5020985;28;20562;-63
2021/05/19 06:49:24;;;;;;;29.52;21.33;;;;;;;;;;5021875;28;20061;-63
2021/05/19 06:52:09;;;;;;;27.88;20.92;;;;;;;;;;5023958;28;20496;-64
2021/05/19 06:54:55;;;;;;;30.08;21.42;;;;;;;;;;5033178;28;20132;-64
2021/05/19 06:57:40;;;;;;;28.25;20.63;;;;;;;;;;4993341;28;20121;-64
2021/05/19 07:00:25;;;;;;;31.73;20.60;;;;;;;;;;5030644;28;20438;-65
2021/05/19 07:03:11;;;;;;;34.25;22.52;;;;;;;;;;5033068;28;20046;-64
2021/05/19 07:05:56;;;;;;;32.63;22.50;;;;;;;;;;5012553;28;20053;-64
2021/05/19 07:08:41;;;;;;;25.75;21.40;;;;;;;;;;5013343;28;20459;-64
2021/05/19 07:11:27;;;;;;;27.52;22.50;;;;;;;;;;5012871;28;20049;-63
2021/05/19 07:14:17;;;;;;;25.77;20.35;;;;;;;;;;5012964;28;20060;-64
2021/05/19 07:17:02;;;;;;;28.90;23.40;;;;;;;;;;5013075;28;20042;-63
2021/05/19 07:19:48;;;;;;;35.13;22.98;;;;;;;;;;5013030;28;20113;-64
2021/05/19 07:22:33;;;;;;;25.75;20.08;;;;;;;;;;5012780;28;20061;-63
2021/05/19 07:25:18;;;;;;;31.92;21.38;;;;;;;;;;4993429;28;20050;-64
2021/05/19 07:28:05;;;;;;;24.45;18.33;;;;;;;;;;4993114;28;20042;-63
2021/05/19 07:30:50;;;;;;;23.88;18.35;;;;;;;;;;5011391;28;20045;-63
2021/05/19 07:33:35;;;;;;;23.73;18.60;;;;;;;;;;5012672;28;20050;-63
2021/05/19 07:36:20;;;;;;;26.52;20.00;;;;;;;;;;5012637;28;20499;-63
2021/05/19 07:39:07;;;;;;;31.38;21.90;;;;;;;;;;5012600;28;20046;-64
2021/05/19 07:41:53;;;;;;;27.38;20.27;;;;;;;;;;5032155;28;20088;-64
2021/05/19 07:44:38;;;;;;;29.45;22.75;;;;;;;;;;5032264;28;20072;-64
2021/05/19 07:47:23;;;;;;;23.65;19.60;;;;;;;;;;5032241;28;20120;-63
2021/05/19 07:50:09;;;;;;;21.27;18.38;;;;;;;;;;5029093;28;20176;-63
2021/05/19 07:52:55;;;;;;;26.02;18.95;;;;;;;;;;5012374;28;20120;-63
2021/05/19 07:58:39;;;;;;;21.33;15.63;;;;;;;;;;5012501;28;20412;-63
2021/05/19 08:01:41;;;;;;;22.05;16.48;;;;;;;;;;5022068;28;20053;-63
2021/05/19 08:04:27;;;;;;;20.95;16.58;;;;;;;;;;5032043;28;20107;-63
2021/05/19 08:07:12;;;;;;;23.35;17.77;;;;;;;;;;5031916;28;20507;-64
2021/05/19 08:09:58;;;;;;;22.50;18.02;;;;;;;;;;5031788;28;20049;-64
2021/05/19 08:12:44;;;;;;;20.67;17.33;;;;;;;;;;5013736;28;20129;-63
2021/05/19 08:15:29;;;;;;;22.40;18.63;;;;;;;;;;5012289;28;20046;-63
2021/05/19 08:18:14;;;;;;;19.00;15.20;;;;;;;;;;5012187;28;20415;-64
2021/05/19 08:21:00;;;;;;;16.15;13.90;;;;;;;;;;5012061;28;20054;-63
2021/05/19 08:23:46;;;;;;;19.98;14.18;;;;;;;;;;5031998;28;20135;-63
2021/05/19 08:26:31;;;;;;;16.50;13.20;;;;;;;;;;5032010;28;20050;-61
2021/05/19 08:29:17;;;;;;;20.58;14.55;;;;;;;;;;5040743;23;20040;-62
2021/05/19 08:32:02;;;;;;;18.70;15.40;;;;;;;;;;4996538;28;20046;-63
2021/05/19 08:34:47;;;;;;;21.40;15.70;;;;;;;;;;4995484;28;20043;-62
2021/05/19 08:37:33;;;;;;;21.33;14.55;;;;;;;;;;4999592;28;20496;-63
2021/05/19 08:40:18;;;;;;;14.55;12.95;;;;;;;;;;5016762;28;20368;-64
2021/05/19 08:43:04;;;;;;;18.35;13.82;;;;;;;;;;5008644;28;20042;-63
2021/05/19 08:45:49;;;;;;;21.33;15.05;;;;;;;;;;4995482;28;20401;-62
2021/05/19 08:48:34;;;;;;;13.80;12.38;;;;;;;;;;4992370;28;20038;-62
2021/05/19 08:51:20;;;;;;;15.38;13.52;;;;;;;;;;5007325;28;20046;-62
2021/05/19 08:54:09;;;;;;;15.65;14.02;;;;;;;;;;4999517;28;20038;-62
2021/05/19 08:56:54;;;;;;;10.95;8.68;;;;;;;;;;4981638;28;20043;-62
2021/05/19 08:59:40;;;;;;;11.38;9.63;;;;;;;;;;4983701;28;20034;-62
2021/05/19 09:02:25;;;;;;;15.52;12.07;;;;;;;;;;4985781;28;20047;-61
2021/05/19 09:05:11;;;;;;;14.52;13.02;;;;;;;;;;4987059;28;20038;-62
2021/05/19 09:08:03;;;;;;;14.95;13.18;;;;;;;;;;4986018;28;20065;-62
2021/05/19 09:10:58;;;;;;;13.60;11.75;;;;;;;;;;4986381;28;20034;-62
2021/05/19 09:13:47;;;;;;;15.60;13.35;;;;;;;;;;4986620;28;20133;-62
2021/05/19 09:16:32;;;;;;;16.85;13.75;;;;;;;;;;4984994;28;20056;-62
2021/05/19 09:19:31;;;;;;;17.00;15.30;;;;;;;;;;4984094;28;20516;-62
2021/05/19 09:22:20;;;;;;;15.32;13.65;;;;;;;;;;4980346;28;20050;-62
2021/05/19 09:25:14;;;;;;;15.60;13.80;;;;;;;;;;4987012;28;20043;-62
2021/05/19 09:28:03;;;;;;;16.55;13.18;;;;;;;;;;4978725;28;20077;-62
2021/05/19 09:30:48;;;;;;;13.50;12.05;;;;;;;;;;4995178;28;20057;-62
2021/05/19 09:33:33;;;;;;;19.73;15.55;;;;;;;;;;4999139;28;20120;-62
2021/05/19 09:36:20;;;;;;;18.52;16.02;;;;;;;;;;5001113;28;20050;-62
2021/05/19 09:39:06;;;;;;;10.43;7.95;;;;;;;;;;4993801;28;20050;-62
2021/05/19 09:41:57;;;;;;;9.38;6.95;;;;;;;;;;4993974;28;20058;-62
2021/05/19 09:44:45;;;;;;;12.60;4.68;;;;;;;;;;4995507;28;20061;-62
2021/05/19 09:47:37;;;;;;;7.85;2.55;;;;;;;;;;4995794;28;20054;-62
2021/05/19 09:50:23;;;;;;;2.97;1.45;;;;;;;;;;4988342;28;20142;-62
2021/05/19 09:53:08;;;;;;;2.72;1.40;;;;;;;;;;4990657;28;20137;-62
2021/05/19 09:55:53;;;;;;;3.33;1.42;;;;;;;;;;4985802;28;20050;-62
2021/05/19 09:58:40;;;;;;;2.85;0.80;;;;;;;;;;4978844;28;20046;-62
2021/05/19 10:01:25;;;;;;;3.72;0.85;;;;;;;;;;4971455;28;20043;-62
2021/05/19 10:04:11;;;;;;;4.60;0.80;;;;;;;;;;4982384;28;20047;-61
2021/05/19 10:06:57;;;;;;;3.97;0.90;;;;;;;;;;4990667;28;20384;-61
2021/05/19 10:09:42;;;;;;;2.05;0.60;;;;;;;;;;4994285;28;20046;-62
2021/05/19 10:12:28;;;;;;;0.88;0.60;;;;;;;;;;5011993;28;20049;-62
2021/05/19 10:15:14;;;;;;;1.13;0.45;;;;;;;;;;5012959;28;20057;-62
2021/05/19 10:18:06;;;;;;;0.30;0.22;;;;;;;;;;5012847;28;20120;-62
2021/05/19 10:20:53;;;;;;;0.38;0.30;;;;;;;;;;5012193;28;20462;-62
2021/05/19 10:23:40;;;;;;;1.10;0.43;;;;;;;;;;5011159;28;20539;-62
2021/05/19 10:26:25;;;;;;;0.70;0.35;;;;;;;;;;5013731;28;20046;-62
2021/05/19 10:29:11;;;;;;;0.80;0.30;;;;;;;;;;4974517;28;20102;-62
2021/05/19 10:31:56;;;;;;;0.50;0.30;;;;;;;;;;4982009;28;20042;-62
2021/05/19 10:34:45;;;;;;;0.82;0.50;;;;;;;;;;4993034;28;20117;-62
2021/05/19 10:37:30;;;;;;;0.98;0.40;;;;;;;;;;5000225;28;20042;-62
2021/05/19 10:40:18;;;;;;;0.50;0.50;;;;;;;;;;5013229;28;20042;-62
2021/05/19 10:43:04;;;;;;;4.60;1.42;;;;;;;;;;5005342;28;20141;-62
2021/05/19 10:45:50;;;;;;;2.47;0.70;;;;;;;;;;4994050;28;20042;-62
2021/05/19 10:48:36;;;;;;;1.33;0.68;;;;;;;;;;5004787;28;20069;-62
2021/05/19 10:51:33;;;;;;;1.90;0.82;;;;;;;;;;5013176;28;20042;-62
2021/05/19 10:57:35;;;;;;;2.75;1.50;;;;;;;;;;4993777;28;20050;-62
2021/05/19 11:00:25;;;;;;;5.40;3.10;;;;;;;;;;5009771;28;20042;-62
2021/05/19 11:03:10;;;;;;;5.53;3.05;;;;;;;;;;5011519;28;20141;-62
2021/05/19 11:05:56;;;;;;;7.43;5.45;;;;;;;;;;5013127;28;20045;-62
2021/05/19 11:08:41;;;;;;;8.13;5.70;;;;;;;;;;5009555;28;20042;-62
2021/05/19 11:11:31;;;;;;;10.73;5.72;;;;;;;;;;4994201;28;20038;-62
2021/05/19 11:14:47;;;;;;;15.65;6.68;;;;;;;;;;4995422;28;20466;-62
2021/05/19 11:20:21;;;;;;;14.15;8.30;;;;;;;;;;5012384;28;20050;-62
2021/05/19 11:23:10;;;;;;;6.82;5.10;;;;;;;;;;5011258;28;20504;-62
2021/05/19 11:26:11;;;;;;;10.40;5.65;;;;;;;;;;5011197;28;20045;-62
2021/05/19 11:28:56;;;;;;;7.70;5.15;;;;;;;;;;5012590;28;20041;-62
2021/05/19 11:31:46;;;;;;;7.63;4.82;;;;;;;;;;5010894;28;20085;-62
2021/05/19 11:34:31;;;;;;;12.30;5.03;;;;;;;;;;5012177;28;20041;-62
2021/05/19 11:37:17;;;;;;;6.32;3.03;;;;;;;;;;4981512;28;20054;-62
2021/05/19 11:40:03;;;;;;;9.98;3.17;;;;;;;;;;4992849;28;20054;-62
2021/05/19 11:42:58;;;;;;;9.07;3.40;;;;;;;;;;4999489;28;20054;-63
2021/05/19 11:45:44;;;;;;;12.82;5.15;;;;;;;;;;4995430;28;20054;-62
2021/05/19 11:48:29;;;;;;;6.40;2.85;;;;;;;;;;4997563;28;20121;-63
2021/05/19 11:51:21;;;;;;;3.30;1.50;;;;;;;;;;5005045;28;20078;-63
2021/05/19 11:54:07;;;;;;;2.22;1.73;;;;;;;;;;4993727;28;20038;-62
2021/05/19 11:56:53;;;;;;;4.97;3.28;;;;;;;;;;4992810;28;20050;-62
2021/05/19 11:59:39;;;;;;;4.32;3.15;;;;;;;;;;4992380;28;20172;-63
2021/05/19 12:02:24;;;;;;;2.05;1.80;;;;;;;;;;5004095;28;20054;-65
2021/05/19 12:05:09;;;;;;;3.70;3.10;;;;;;;;;;5012269;28;20526;-62
2021/05/19 12:07:55;;;;;;;5.50;3.03;;;;;;;;;;4997288;28;20050;-62
2021/05/19 12:10:41;;;;;;;1.75;1.55;;;;;;;;;;5009846;28;20440;-62
2021/05/19 12:13:26;;;;;;;4.15;1.60;;;;;;;;;;5012122;28;20042;-62
2021/05/19 12:16:17;;;;;;;2.97;1.75;;;;;;;;;;5013578;28;20053;-62
2021/05/19 12:19:10;;;;;;;5.13;2.92;;;;;;;;;;5017014;28;20050;-63
2021/05/19 12:22:06;;;;;;;4.03;2.30;;;;;;;;;;5017127;28;20042;-62
2021/05/19 12:24:52;;;;;;;3.72;2.97;;;;;;;;;;5018526;28;20587;-62
2021/05/19 12:27:38;;;;;;;3.53;3.10;;;;;;;;;;5004072;28;20050;-62
2021/05/19 12:30:23;;;;;;;4.53;2.28;;;;;;;;;;4983909;28;20054;-62
2021/05/19 12:33:09;;;;;;;4.13;2.80;;;;;;;;;;5010904;28;20046;-62
2021/05/19 12:35:54;;;;;;;3.40;3.00;;;;;;;;;;5018668;28;20049;-62
2021/05/19 12:38:49;;;;;;;5.88;3.25;;;;;;;;;;5018067;28;20688;-62
2021/05/19 12:41:44;;;;;;;4.97;2.80;;;;;;;;;;5014064;28;20756;-63
2021/05/19 12:44:31;;;;;;;3.63;2.55;;;;;;;;;;4999893;28;20043;-62
2021/05/19 12:47:23;;;;;;;3.88;2.70;;;;;;;;;;5000031;28;20046;-63
2021/05/19 12:50:09;;;;;;;3.72;2.88;;;;;;;;;;4998603;28;20055;-62
2021/05/19 12:52:55;;;;;;;2.08;1.73;;;;;;;;;;4999733;28;20403;-63
2021/05/19 12:55:40;;;;;;;3.83;2.40;;;;;;;;;;4999772;28;20038;-63
2021/05/19 12:58:25;;;;;;;5.25;3.33;;;;;;;;;;4998897;28;20060;-63
2021/05/19 13:01:11;;;;;;;5.10;3.55;;;;;;;;;;4998439;28;20492;-62
2021/05/19 13:03:58;;;;;;;3.15;2.70;;;;;;;;;;4999872;28;20046;-62
2021/05/19 13:06:44;;;;;;;2.15;1.88;;;;;;;;;;4999841;28;20050;-62
2021/05/19 13:09:30;;;;;;;4.22;2.03;;;;;;;;;;4998490;28;20046;-62
2021/05/19 13:12:37;;;;;;;2.88;1.90;;;;;;;;;;4998605;28;20042;-62
2021/05/19 13:15:32;;;;;;;4.40;2.13;;;;;;;;;;4998609;28;20046;-62
2021/05/19 13:18:25;;;;;;;3.38;2.00;;;;;;;;;;5002408;28;20097;-61
2021/05/19 13:21:15;;;;;;;2.10;1.70;;;;;;;;;;5017919;28;20077;-63
2021/05/19 13:24:10;;;;;;;2.50;1.67;;;;;;;;;;5007172;28;20043;-61
2021/05/19 13:26:55;;;;;;;2.60;1.73;;;;;;;;;;4998425;28;20047;-62
2021/05/19 13:29:40;;;;;;;2.45;1.67;;;;;;;;;;4995205;28;20086;-61
2021/05/19 13:38:24;;;;;;;3.78;1.40;;;;;;;;;;4995243;28;20046;-61
2021/05/19 13:41:10;;;;;;;2.72;1.00;;;;;;;;;;5012655;28;20481;-62
2021/05/19 13:43:55;;;;;;;3.08;1.70;;;;;;;;;;5013014;28;20128;-64
2021/05/19 13:46:44;;;;;;;2.72;1.42;;;;;;;;;;5013157;28;20046;-63
2021/05/19 13:49:33;;;;;;;2.90;1.25;;;;;;;;;;5014331;28;20162;-63
2021/05/19 13:52:18;;;;;;;1.25;0.70;;;;;;;;;;4967947;28;20129;-63
2021/05/19 13:55:04;;;;;;;1.23;0.50;;;;;;;;;;4984363;28;20046;-64
2021/05/19 13:57:49;;;;;;;1.10;0.50;;;;;;;;;;5012840;28;20042;-63
2021/05/19 14:00:35;;;;;;;1.27;0.55;;;;;;;;;;5014115;28;20041;-64
2021/05/19 14:03:26;;;;;;;3.72;0.57;;;;;;;;;;5000160;28;20050;-64
2021/05/19 14:06:12;;;;;;;1.77;0.52;;;;;;;;;;4995885;28;20050;-64
2021/05/19 14:08:57;;;;;;;1.63;0.40;;;;;;;;;;4994539;28;20074;-63
2021/05/19 14:14:49;;;;;;;1.90;0.95;;;;;;;;;;4994571;28;20050;-63
2021/05/19 14:17:55;;;;;;;1.38;0.70;;;;;;;;;;5005723;28;20045;-64
2021/05/19 14:29:34;;;;;;;0.98;0.77;;;;;;;;;;4974426;28;20420;-63
2021/05/19 14:32:20;;;;;;;1.92;1.30;;;;;;;;;;5000478;28;20045;-64
2021/05/19 14:35:08;;;;;;;4.00;1.45;;;;;;;;;;5003274;28;20049;-64
2021/05/19 15:01:57;;;;;;;1.20;0.70;;;;;;;;;;5001371;28;20221;-62
2021/05/19 15:04:42;;;;;;;0.98;0.57;;;;;;;;;;4993734;28;20105;-62
2021/05/19 15:07:28;;;;;;;0.60;0.40;;;;;;;;;;5001958;28;20469;-62
2021/05/19 15:10:13;;;;;;;0.52;0.50;;;;;;;;;;5011380;28;20049;-62
2021/05/19 15:12:59;;;;;;;3.42;0.80;;;;;;;;;;5011541;28;20049;-62
2021/05/19 15:15:44;;;;;;;0.90;0.65;;;;;;;;;;4986073;28;20046;-62
2021/05/19 15:18:30;;;;;;;2.25;0.80;;;;;;;;;;4995718;28;20050;-64
2021/05/19 15:21:15;;;;;;;1.30;1.10;;;;;;;;;;4994187;28;20042;-64
2021/05/19 15:24:01;;;;;;;1.15;1.05;;;;;;;;;;4993102;28;20415;-63
2021/05/19 15:26:47;;;;;;;1.65;0.95;;;;;;;;;;5002873;28;20161;-64
2021/05/19 15:29:32;;;;;;;3.90;1.23;;;;;;;;;;5023573;28;20054;-63
2021/05/19 15:32:17;;;;;;;1.23;1.10;;;;;;;;;;5007207;28;20100;-63
2021/05/19 15:35:02;;;;;;;1.65;0.93;;;;;;;;;;5022088;28;20125;-64
2021/05/19 15:37:48;;;;;;;1.65;1.00;;;;;;;;;;5013162;28;20103;-64
2021/05/19 15:40:33;;;;;;;1.90;1.05;;;;;;;;;;5002217;28;20504;-62
2021/05/19 15:43:19;;;;;;;2.20;1.10;;;;;;;;;;5005953;28;20066;-65
2021/05/19 15:46:04;;;;;;;2.25;1.02;;;;;;;;;;4991271;28;20050;-64
2021/05/19 15:48:49;;;;;;;1.27;1.10;;;;;;;;;;5021600;28;20042;-65
2021/05/19 15:51:36;;;;;;;2.25;1.15;;;;;;;;;;5023162;28;20046;-65
2021/05/19 15:54:21;;;;;;;2.38;1.20;;;;;;;;;;5007065;28;20088;-65
2021/05/19 15:57:07;;;;;;;1.20;1.10;;;;;;;;;;4992752;28;20042;-63
2021/05/19 15:59:52;;;;;;;1.63;1.30;;;;;;;;;;5001627;28;20046;-64
2021/05/19 16:02:37;;;;;;;1.67;1.20;;;;;;;;;;5002421;28;20042;-63
2021/05/19 16:05:23;;;;;;;3.00;1.33;;;;;;;;;;5001478;28;20062;-64
2021/05/19 16:08:08;;;;;;;3.72;1.40;;;;;;;;;;5012690;28;20097;-64
2021/05/19 16:10:54;;;;;;;1.92;0.80;;;;;;;;;;5024962;28;20110;-62
2021/05/19 16:13:40;;;;;;;1.05;0.68;;;;;;;;;;5013550;28;20457;-61
2021/05/19 16:16:25;;;;;;;2.88;1.13;;;;;;;;;;5009449;28;20094;-64
2021/05/19 16:19:10;;;;;;;0.65;0.65;;;;;;;;;;4987328;28;20039;-63
2021/05/19 16:21:58;;;;;;;2.42;0.90;;;;;;;;;;4996471;28;20042;-63
2021/05/19 16:24:43;;;;;;;2.25;1.10;;;;;;;;;;5003365;28;20046;-63
2021/05/19 16:27:29;;;;;;;2.08;0.90;;;;;;;;;;4996193;28;20057;-63
2021/05/19 16:30:44;;;;;;;1.48;0.90;;;;;;;;;;4987766;28;20050;-63
2021/05/19 16:36:53;;;;;;;1.60;1.17;;;;;;;;;;5001252;28;20043;-63
2021/05/19 16:39:43;;;;;;;2.50;1.50;;;;;;;;;;5002382;28;20501;-63
2021/05/19 16:42:28;;;;;;;3.30;1.33;;;;;;;;;;5001510;28;20081;-63
2021/05/19 16:45:13;;;;;;;1.98;1.15;;;;;;;;;;4999136;28;20525;-64
2021/05/19 16:47:59;;;;;;;1.80;1.70;;;;;;;;;;5000335;28;20416;-64
2021/05/19 16:50:44;;;;;;;1.55;1.45;;;;;;;;;;5001160;28;20166;-62
2021/05/19 16:53:30;;;;;;;4.65;1.92;;;;;;;;;;5000049;28;20081;-62
2021/05/19 16:56:15;;;;;;;1.73;1.63;;;;;;;;;;4998063;28;20046;-62
2021/05/19 16:59:00;;;;;;;2.60;2.05;;;;;;;;;;5001891;28;20039;-63
2021/05/19 17:07:35;;;;;;;1.38;1.27;;;;;;;;;;4999866;28;20540;-63
2021/05/19 17:10:21;;;;;;;2.30;1.50;;;;;;;;;;5001076;28;20488;-62
2021/05/19 17:13:06;;;;;;;1.75;1.48;;;;;;;;;;5002569;28;20042;-62
2021/05/19 17:15:51;;;;;;;1.60;1.40;;;;;;;;;;5002636;28;20074;-63
2021/05/19 17:18:36;;;;;;;2.70;1.85;;;;;;;;;;4997683;28;20046;-64
2021/05/19 17:21:22;;;;;;;2.28;1.80;;;;;;;;;;4986769;28;20054;-63
2021/05/19 17:24:07;;;;;;;2.88;2.53;;;;;;;;;;5002011;28;20129;-63
2021/05/19 17:26:53;;;;;;;2.58;2.38;;;;;;;;;;4999603;28;20050;-63